Time;durP1;ratioP1;P1;durP2;ratioP2;P2;SDS_P1;SDS_P2;PMS_P1;PMS_P2;Temp;Humidity;BMP_temperature;BMP_pressure;BME280_temperature;BME280_humidity;BME280_pressure;Samples;Min_cycle;Max_cycle;Signal;HPM_P1;HPM_P2
2023/03/26 00:01:14;;;;;;;21.13;11.98;;;;;;;18.15;50.44;100774.28;5051041;28;20537;-37
2023/03/26 00:03:43;;;;;;;21.00;11.77;;;;;;;18.15;50.09;100785.84;5050260;28;20044;-37
2023/03/26 00:06:15;;;;;;;20.10;10.70;;;;;;;18.14;50.52;100773.44;5046373;28;20060;-37
2023/03/26 00:08:44;;;;;;;18.70;11.02;;;;;;;18.15;50.14;100782.31;5051240;28;20443;-37
2023/03/26 00:11:13;;;;;;;20.50;10.90;;;;;;;18.15;49.96;100779.63;5048799;28;20071;-37
2023/03/26 00:13:42;;;;;;;19.30;10.98;;;;;;;18.14;50.14;100780.66;5043038;28;20404;-37
2023/03/26 00:16:18;;;;;;;18.65;10.68;;;;;;;18.11;50.36;100780.94;5047128;28;20131;-37
2023/03/26 00:18:46;;;;;;;20.00;10.50;;;;;;;18.12;50.02;100786.16;5046741;28;20128;-37
2023/03/26 00:21:15;;;;;;;19.15;10.48;;;;;;;18.11;50.00;100781.78;5046443;28;20166;-38
2023/03/26 00:23:42;;;;;;;16.38;9.75;;;;;;;18.09;50.02;100773.06;5046864;28;20056;-37
2023/03/26 00:26:10;;;;;;;17.30;9.38;;;;;;;18.09;50.21;100767.72;5050234;28;20430;-38
2023/03/26 00:28:39;;;;;;;17.45;9.70;;;;;;;18.08;50.13;100754.44;5049240;28;20041;-39
2023/03/26 00:31:10;;;;;;;18.05;9.25;;;;;;;18.06;50.07;100754.59;5054060;28;20084;-38
2023/03/26 00:33:39;;;;;;;19.02;10.00;;;;;;;18.06;50.17;100753.75;5050797;28;20122;-37
2023/03/26 00:36:15;;;;;;;17.25;9.18;;;;;;;18.05;49.93;100750.25;5048576;28;20048;-38
2023/03/26 00:38:43;;;;;;;16.17;9.52;;;;;;;18.04;50.08;100747.69;5054726;28;20339;-38
2023/03/26 00:41:23;;;;;;;15.23;8.57;;;;;;;18.03;50.43;100749.53;5059412;28;20084;-37
2023/03/26 00:43:56;;;;;;;19.60;9.20;;;;;;;18.03;50.14;100746.84;5051584;28;20128;-36
2023/03/26 00:46:25;;;;;;;16.87;8.97;;;;;;;18.02;50.12;100744.34;5053526;28;20053;-36
2023/03/26 00:48:51;;;;;;;19.15;9.57;;;;;;;18.01;49.76;100743.50;5057137;28;20484;-38
2023/03/26 00:51:19;;;;;;;15.32;7.95;;;;;;;17.99;50.18;100735.59;5051382;28;20041;-38
2023/03/26 00:53:48;;;;;;;14.82;7.88;;;;;;;17.99;49.99;100734.75;5062951;28;20057;-38
2023/03/26 00:56:14;;;;;;;14.38;8.38;;;;;;;17.99;50.26;100737.44;5048274;28;20049;-37
2023/03/26 00:58:42;;;;;;;15.93;8.40;;;;;;;17.98;50.13;100733.91;5047749;28;20068;-38
2023/03/26 01:01:14;;;;;;;15.45;8.32;;;;;;;17.97;50.09;100732.25;5051641;28;20049;-39
2023/03/26 01:03:43;;;;;;;14.57;8.05;;;;;;;17.97;50.04;100732.25;5049436;28;20041;-38
2023/03/26 01:06:34;;;;;;;15.07;8.13;;;;;;;17.98;50.27;100722.34;5042472;28;20183;-39
2023/03/26 01:09:13;;;;;;;15.13;7.93;;;;;;;17.96;50.24;100718.97;5046610;28;20131;-38
2023/03/26 01:11:39;;;;;;;15.77;7.80;;;;;;;17.94;49.79;100711.09;5047817;28;20037;-38
2023/03/26 01:14:13;;;;;;;15.70;7.88;;;;;;;17.94;49.98;100708.41;5044712;28;20132;-38
2023/03/26 01:16:45;;;;;;;;;;;;;;;17.93;50.38;100701.38;5045338;28;20690;-38
2023/03/26 01:19:28;;;;;;;13.40;7.90;;;;;;;17.96;49.92;100698.34;5051783;28;19927;-38
2023/03/26 01:21:56;;;;;;;14.18;7.65;;;;;;;17.94;50.51;100699.53;5045903;28;20049;-38
2023/03/26 01:24:23;;;;;;;15.77;7.55;;;;;;;17.94;49.80;100688.81;5050827;28;20424;-38
2023/03/26 01:27:16;;;;;;;15.75;7.40;;;;;;;17.93;50.19;100684.41;5055911;28;20095;-37
2023/03/26 01:29:52;;;;;;;17.33;7.27;;;;;;;17.93;50.41;100685.28;5056728;28;20049;-37
2023/03/26 01:32:27;;;;;;;14.20;7.22;;;;;;;17.94;50.23;100678.91;5057802;28;20106;-36
2023/03/26 01:35:32;;;;;;;14.00;7.43;;;;;;;17.91;50.44;100675.72;5058188;28;20127;-36
2023/03/26 01:38:24;;;;;;;18.42;7.85;;;;;;;17.92;49.84;100669.34;5024530;28;20309;-37
2023/03/26 01:41:06;;;;;;;14.25;7.38;;;;;;;17.91;49.95;100675.72;5052825;28;20048;-37
2023/03/26 01:43:42;;;;;;;14.77;7.28;;;;;;;17.90;49.89;100666.81;5051729;28;20060;-36
2023/03/26 01:46:11;;;;;;;12.55;6.68;;;;;;;17.90;50.19;100661.47;5055314;28;20450;-37
2023/03/26 01:48:41;;;;;;;15.77;7.13;;;;;;;17.90;49.76;100661.47;5059804;28;20052;-38
2023/03/26 01:51:10;;;;;;;12.48;6.32;;;;;;;17.90;50.10;100664.16;5061115;28;20428;-38
2023/03/26 01:53:47;;;;;;;14.55;7.00;;;;;;;17.91;50.05;100656.94;5060925;28;20344;-38
2023/03/26 01:56:40;;;;;;;13.02;6.70;;;;;;;17.89;50.35;100662.47;5051616;28;20049;-38
2023/03/26 01:59:45;;;;;;;13.93;6.63;;;;;;;17.88;50.33;100647.34;5048754;28;20135;-37
2023/03/26 02:02:17;;;;;;;14.65;7.43;;;;;;;17.90;50.16;100650.72;5051704;28;20451;-36
2023/03/26 02:05:08;;;;;;;11.88;5.82;;;;;;;17.89;49.90;100645.50;5043711;28;20337;-36
2023/03/26 02:07:49;;;;;;;14.32;6.40;;;;;;;17.89;50.10;100641.03;5044117;28;20045;-37
2023/03/26 02:10:25;;;;;;;13.80;6.97;;;;;;;17.89;50.10;100641.03;5047110;28;20432;-36
2023/03/26 02:12:53;;;;;;;16.10;7.00;;;;;;;17.89;49.91;100637.47;5041605;28;20060;-37
2023/03/26 02:15:20;;;;;;;15.70;6.30;;;;;;;17.89;49.96;100624.94;5045273;28;20132;-38
2023/03/26 02:17:48;;;;;;;12.40;6.10;;;;;;;17.90;50.13;100628.44;5046012;28;20056;-37
2023/03/26 02:20:18;;;;;;;12.13;5.93;;;;;;;17.89;49.95;100618.69;5047679;28;20053;-38
2023/03/26 02:22:46;;;;;;;12.32;5.93;;;;;;;17.89;49.98;100616.88;5046745;28;20057;-38
2023/03/26 02:25:18;;;;;;;14.77;6.30;;;;;;;17.88;49.92;100620.53;5046599;28;20052;-38
2023/03/26 02:27:45;;;;;;;12.43;5.95;;;;;;;17.89;49.98;100618.69;5043361;28;20046;-37
2023/03/26 02:30:15;;;;;;;13.10;6.68;;;;;;;17.89;50.21;100607.97;5045863;28;20429;-37
2023/03/26 02:32:42;;;;;;;12.43;5.75;;;;;;;17.89;50.01;100610.66;5048585;28;20071;-38
2023/03/26 02:35:11;;;;;;;11.07;5.80;;;;;;;17.88;49.75;100607.13;5048815;28;20056;-38
2023/03/26 02:37:38;;;;;;;12.98;6.13;;;;;;;17.89;50.16;100605.28;5042459;28;20487;-38
2023/03/26 02:40:10;;;;;;;11.38;6.03;;;;;;;17.89;50.14;100600.81;5046183;28;20065;-37
2023/03/26 02:42:37;;;;;;;13.35;5.90;;;;;;;17.88;50.25;100609.81;5046375;28;20341;-38
2023/03/26 02:45:05;;;;;;;13.65;6.55;;;;;;;17.88;50.22;100599.09;5047890;28;20500;-37
2023/03/26 02:47:32;;;;;;;12.02;5.28;;;;;;;17.87;50.34;100597.41;5052480;28;20045;-37
2023/03/26 02:50:00;;;;;;;13.95;5.50;;;;;;;17.86;50.54;100598.44;5043271;28;20111;-37
2023/03/26 02:52:26;;;;;;;12.20;5.80;;;;;;;17.84;50.13;100595.03;5045643;28;20080;-37
2023/03/26 02:54:53;;;;;;;12.07;5.30;;;;;;;17.84;49.71;100600.41;5047545;28;20048;-37
2023/03/26 02:57:20;;;;;;;13.10;5.80;;;;;;;17.84;49.84;100602.25;5045294;28;20425;-37
2023/03/26 02:59:49;;;;;;;12.93;5.53;;;;;;;17.82;49.96;100598.91;5044957;28;20060;-39
2023/03/26 03:02:17;;;;;;;15.52;5.43;;;;;;;17.81;50.19;100591.84;5046138;28;20437;-37
2023/03/26 03:04:43;;;;;;;13.63;5.63;;;;;;;17.81;50.24;100591.84;5045087;28;20106;-38
2023/03/26 03:07:13;;;;;;;14.90;5.40;;;;;;;17.80;50.12;100588.31;5042619;28;20070;-37
2023/03/26 03:09:40;;;;;;;14.70;5.75;;;;;;;17.80;49.96;100587.47;5043040;28;20095;-38
2023/03/26 03:12:07;;;;;;;15.50;5.90;;;;;;;17.80;49.79;100584.81;5044305;28;20095;-38
2023/03/26 03:14:34;;;;;;;14.13;5.10;;;;;;;17.79;49.98;100578.59;5046029;28;20443;-38
2023/03/26 03:17:01;;;;;;;13.05;4.80;;;;;;;17.79;49.96;100575.94;5045768;28;20045;-39
2023/03/26 03:19:27;;;;;;;13.40;6.00;;;;;;;17.79;49.77;100572.41;5049468;28;20075;-39
2023/03/26 03:21:54;;;;;;;11.95;4.50;;;;;;;17.78;49.90;100571.56;5044977;28;20060;-38
2023/03/26 03:24:22;;;;;;;14.70;5.40;;;;;;;17.78;49.99;100574.25;5050701;28;20300;-39
2023/03/26 03:26:49;;;;;;;16.50;5.93;;;;;;;17.77;50.13;100564.53;5049134;28;20041;-36
2023/03/26 03:29:16;;;;;;;11.90;4.55;;;;;;;17.76;49.85;100574.38;5051174;28;20164;-37
2023/03/26 03:31:42;;;;;;;14.82;5.65;;;;;;;17.76;49.77;100562.84;5058134;28;20051;-38
2023/03/26 03:34:09;;;;;;;15.43;5.80;;;;;;;17.75;50.15;100562.00;5055118;28;20053;-37
2023/03/26 03:36:37;;;;;;;17.70;6.03;;;;;;;17.74;50.11;100565.69;5055093;28;20053;-37
2023/03/26 03:39:04;;;;;;;16.27;6.00;;;;;;;17.74;50.11;100560.31;5058320;28;20055;-36
2023/03/26 03:41:30;;;;;;;15.75;5.47;;;;;;;17.74;49.86;100562.13;5056045;28;20757;-38
2023/03/26 03:43:58;;;;;;;14.77;5.55;;;;;;;17.72;50.22;100556.91;5055024;28;20415;-38
2023/03/26 03:46:25;;;;;;;14.40;5.30;;;;;;;17.72;49.84;100554.22;5053956;28;20103;-37
2023/03/26 03:48:51;;;;;;;16.17;5.18;;;;;;;17.72;50.14;100551.56;5052964;28;20055;-38
2023/03/26 03:51:18;;;;;;;17.50;5.22;;;;;;;17.71;49.96;100552.56;5057063;28;20056;-37
2023/03/26 03:53:46;;;;;;;14.10;4.90;;;;;;;17.71;50.24;100551.72;5055880;28;20055;-38
2023/03/26 03:56:13;;;;;;;12.02;4.30;;;;;;;17.70;49.71;100550.88;5057700;28;20055;-38
2023/03/26 03:58:41;;;;;;;14.05;5.07;;;;;;;17.70;49.95;100545.53;5058657;28;20037;-37
2023/03/26 04:01:07;;;;;;;9.82;4.30;;;;;;;17.70;49.98;100542.00;5052951;28;20053;-37
2023/03/26 04:03:37;;;;;;;14.60;5.40;;;;;;;17.70;49.79;100532.13;5045217;28;20459;-37
2023/03/26 04:06:05;;;;;;;13.05;4.65;;;;;;;17.70;49.83;100532.13;5047286;28;20060;-37
2023/03/26 04:08:33;;;;;;;11.02;3.65;;;;;;;17.69;50.07;100533.13;5049208;28;20052;-37
2023/03/26 04:11:00;;;;;;;13.27;4.20;;;;;;;17.69;49.99;100534.97;5051317;28;20497;-37
2023/03/26 04:13:27;;;;;;;11.30;4.32;;;;;;;17.70;49.63;100533.97;5047456;28;20045;-37
2023/03/26 04:15:54;;;;;;;14.63;5.05;;;;;;;17.68;50.16;100523.38;5051746;28;20049;-37
2023/03/26 04:18:22;;;;;;;14.85;4.68;;;;;;;17.68;50.01;100523.38;5055321;28;20140;-38
2023/03/26 04:20:48;;;;;;;11.40;4.22;;;;;;;17.68;49.98;100517.19;5054827;28;20081;-38
2023/03/26 04:23:17;;;;;;;10.52;4.32;;;;;;;17.68;49.96;100522.53;5051060;28;20458;-38
2023/03/26 04:25:48;;;;;;;10.70;3.85;;;;;;;17.68;49.98;100512.66;5045821;28;20049;-38
2023/03/26 04:28:29;;;;;;;10.63;3.90;;;;;;;17.68;50.18;100507.31;5040438;28;20049;-36
2023/03/26 04:30:59;;;;;;;10.93;4.45;;;;;;;17.69;49.65;100503.66;5047311;28;20056;-37
2023/03/26 04:33:28;;;;;;;10.35;3.42;;;;;;;17.69;49.98;100500.97;5051943;28;20144;-37
2023/03/26 04:36:00;;;;;;;13.30;4.10;;;;;;;17.70;49.93;100488.41;5050768;28;20049;-36
2023/03/26 04:38:32;;;;;;;11.82;4.53;;;;;;;17.70;50.07;100483.03;5046076;28;20060;-35
2023/03/26 04:41:00;;;;;;;10.35;4.03;;;;;;;17.71;50.34;100479.34;5052260;28;20524;-37
2023/03/26 04:43:30;;;;;;;11.05;3.72;;;;;;;17.70;49.97;100481.19;5056930;28;20057;-37
2023/03/26 04:45:56;;;;;;;9.75;3.70;;;;;;;17.71;50.12;100474.00;5056166;28;20486;-38
2023/03/26 04:48:23;;;;;;;10.10;3.95;;;;;;;17.71;50.07;100469.47;5050905;28;20059;-38
2023/03/26 04:50:50;;;;;;;13.93;4.38;;;;;;;17.71;49.96;100465.94;5055822;28;20429;-36
2023/03/26 04:53:20;;;;;;;9.02;3.60;;;;;;;17.71;49.93;100463.28;5056187;28;20387;-36
2023/03/26 04:55:58;;;;;;;9.43;3.58;;;;;;;17.70;49.95;100459.75;5057281;28;20452;-38
2023/03/26 04:58:31;;;;;;;11.40;4.05;;;;;;;17.72;49.79;100460.41;5053416;28;20101;-38
2023/03/26 05:01:00;;;;;;;9.85;3.50;;;;;;;17.72;50.12;100454.22;5046268;28;20049;-38
2023/03/26 05:03:38;;;;;;;11.50;3.65;;;;;;;17.72;50.22;100449.69;5041633;28;20064;-36
2023/03/26 05:06:05;;;;;;;10.27;3.95;;;;;;;17.72;50.21;100443.50;5047038;28;20061;-39
2023/03/26 05:08:31;;;;;;;10.07;3.70;;;;;;;17.72;50.03;100444.34;5046547;28;20083;-37
2023/03/26 05:10:58;;;;;;;12.88;4.53;;;;;;;17.72;50.04;100443.50;5046323;28;20049;-38
2023/03/26 05:13:24;;;;;;;10.02;4.00;;;;;;;17.71;50.04;100437.31;5040977;28;20070;-38
2023/03/26 05:15:51;;;;;;;13.35;3.75;;;;;;;17.72;50.11;100438.97;5049138;28;20153;-37
2023/03/26 05:18:18;;;;;;;10.63;3.25;;;;;;;17.72;50.07;100433.63;5044634;28;20044;-38
2023/03/26 05:20:45;;;;;;;6.75;2.83;;;;;;;17.71;50.17;100437.31;5052864;28;20059;-36
2023/03/26 05:23:11;;;;;;;7.95;3.45;;;;;;;17.72;50.02;100430.09;5055433;28;20084;-37
2023/03/26 05:25:38;;;;;;;7.18;3.28;;;;;;;17.72;49.60;100425.56;5056634;28;20056;-35
2023/03/26 05:28:05;;;;;;;10.13;3.65;;;;;;;17.72;50.34;100422.06;5051918;28;20055;-36
2023/03/26 05:30:31;;;;;;;9.50;4.28;;;;;;;17.71;50.18;100421.22;5038205;28;20092;-36
2023/03/26 05:32:58;;;;;;;9.75;3.33;;;;;;;17.72;50.03;100416.69;5050790;28;20049;-37
2023/03/26 05:35:25;;;;;;;8.50;3.70;;;;;;;17.72;50.08;100411.34;5057780;28;20056;-37
2023/03/26 05:37:51;;;;;;;10.20;3.20;;;;;;;17.71;50.02;100410.50;5053588;28;20345;-36
2023/03/26 05:40:18;;;;;;;9.45;3.58;;;;;;;17.70;50.07;100403.47;5053336;28;20104;-36
2023/03/26 05:42:46;;;;;;;8.25;3.60;;;;;;;17.71;50.04;100407.81;5057318;28;20057;-37
2023/03/26 05:45:14;;;;;;;10.55;3.63;;;;;;;17.71;50.32;100398.94;5054706;28;20056;-36
2023/03/26 05:47:40;;;;;;;9.80;3.25;;;;;;;17.70;50.45;100392.75;5058507;28;20048;-37
2023/03/26 05:50:08;;;;;;;10.30;3.30;;;;;;;17.69;50.21;100393.75;5052577;28;20041;-37
2023/03/26 05:52:35;;;;;;;9.90;3.25;;;;;;;17.69;49.55;100384.88;5054778;28;20132;-36
2023/03/26 05:55:02;;;;;;;8.52;3.30;;;;;;;17.69;49.96;100388.41;5043879;28;20056;-38
2023/03/26 05:57:30;;;;;;;8.20;3.20;;;;;;;17.69;49.77;100385.72;5044892;28;20044;-38
2023/03/26 05:59:56;;;;;;;9.75;3.65;;;;;;;17.68;50.11;100375.97;5044738;28;20045;-36
2023/03/26 06:02:23;;;;;;;6.63;3.28;;;;;;;17.68;50.08;100372.44;5040663;28;20049;-36
2023/03/26 06:04:49;;;;;;;8.93;3.30;;;;;;;17.67;50.66;100378.81;5041633;28;20049;-37
2023/03/26 06:07:17;;;;;;;8.02;3.15;;;;;;;17.66;50.09;100374.47;5048606;28;20106;-36
2023/03/26 06:09:44;;;;;;;9.30;3.60;;;;;;;17.66;50.07;100380.66;5040119;28;20049;-37
2023/03/26 06:12:11;;;;;;;8.98;3.65;;;;;;;17.66;50.02;100378.00;5056316;28;20131;-37
2023/03/26 06:14:38;;;;;;;7.72;3.40;;;;;;;17.66;50.34;100374.47;5058196;28;20049;-37
2023/03/26 06:17:04;;;;;;;9.95;3.90;;;;;;;17.65;50.07;100365.59;5053502;28;20048;-38
2023/03/26 06:19:31;;;;;;;8.35;3.85;;;;;;;17.66;50.05;100363.75;5052583;28;20060;-38
2023/03/26 06:21:57;;;;;;;8.77;3.80;;;;;;;17.66;50.40;100367.28;5051959;28;20048;-38
2023/03/26 06:24:24;;;;;;;8.25;3.67;;;;;;;17.65;50.05;100368.28;5049423;28;20348;-38
2023/03/26 06:26:51;;;;;;;10.20;3.83;;;;;;;17.65;50.45;100362.91;5053825;28;20049;-38
2023/03/26 06:29:18;;;;;;;8.60;3.42;;;;;;;17.66;50.19;100361.06;5049577;28;20080;-36
2023/03/26 06:31:45;;;;;;;9.45;4.00;;;;;;;17.65;50.36;100362.91;5056944;28;20052;-36
2023/03/26 06:34:11;;;;;;;7.75;3.72;;;;;;;17.66;50.03;100361.91;5048655;28;20055;-37
2023/03/26 06:36:38;;;;;;;8.90;3.60;;;;;;;17.67;50.13;100368.09;5039192;28;20053;-37
2023/03/26 06:39:04;;;;;;;7.65;3.72;;;;;;;17.65;50.01;100362.91;5043593;28;20049;-38
2023/03/26 06:41:34;;;;;;;9.48;4.18;;;;;;;17.65;50.32;100357.56;5046742;28;20053;-38
2023/03/26 06:44:00;;;;;;;11.63;4.60;;;;;;;17.69;49.89;100358.91;5025505;28;20065;-40
2023/03/26 06:46:27;;;;;;;13.50;4.75;;;;;;;17.76;50.44;100359.09;5027336;28;20053;-39
2023/03/26 06:48:54;;;;;;;14.32;6.93;;;;;;;17.84;50.38;100358.28;5035094;28;20141;-35
2023/03/26 06:51:21;;;;;;;13.30;6.30;;;;;;;17.98;50.59;100355.81;5034384;28;20053;-38
2023/03/26 06:53:47;;;;;;;15.30;8.25;;;;;;;18.17;50.10;100356.50;5015870;28;20060;-38
2023/03/26 06:56:14;;;;;;;22.65;9.88;;;;;;;18.37;50.72;100362.38;5037303;28;20095;-40
2023/03/26 06:58:40;;;;;;;16.63;9.18;;;;;;;18.58;50.27;100362.72;5037645;28;20325;-39
2023/03/26 07:01:07;;;;;;;16.35;8.65;;;;;;;18.78;50.02;100370.44;5033534;28;20076;-40
2023/03/26 07:03:34;;;;;;;14.63;7.93;;;;;;;18.97;49.77;100367.38;5039279;28;20053;-39
2023/03/26 07:06:00;;;;;;;17.83;7.95;;;;;;;19.16;49.52;100364.31;5036424;28;20053;-44
2023/03/26 07:08:27;;;;;;;16.67;8.63;;;;;;;19.36;49.26;100358.53;5038541;28;20067;-40
2023/03/26 07:10:54;;;;;;;16.60;9.00;;;;;;;19.54;49.06;100352.91;5039277;28;20053;-45
2023/03/26 07:13:21;;;;;;;18.45;9.20;;;;;;;19.70;49.09;100359.09;5011948;28;20139;-39
2023/03/26 07:15:48;;;;;;;19.00;8.82;;;;;;;19.86;48.16;100354.59;5038281;28;20053;-40
2023/03/26 07:18:14;;;;;;;17.73;8.48;;;;;;;20.00;48.53;100358.41;5038521;28;20056;-40
2023/03/26 07:20:43;;;;;;;19.98;9.35;;;;;;;20.09;48.15;100355.47;5037933;28;20404;-38
2023/03/26 07:23:11;;;;;;;17.33;9.57;;;;;;;20.21;48.11;100356.72;5038886;28;20057;-43
2023/03/26 07:25:38;;;;;;;24.35;11.30;;;;;;;20.32;47.82;100351.94;5040055;28;20322;-41
2023/03/26 07:28:36;;;;;;;19.20;9.93;;;;;;;20.40;47.49;100350.00;5041193;28;20057;-39
2023/03/26 07:31:33;;;;;;;19.25;9.98;;;;;;;20.50;47.40;100344.38;5039628;28;20056;-41
2023/03/26 07:34:15;;;;;;;22.77;10.57;;;;;;;20.59;47.78;100345.19;5002746;28;20312;-40
2023/03/26 07:36:56;;;;;;;21.38;11.02;;;;;;;20.65;47.81;100347.94;5038294;28;20444;-40
2023/03/26 07:39:31;;;;;;;21.65;11.10;;;;;;;20.70;46.94;100340.19;5039871;28;20045;-40
2023/03/26 07:42:10;;;;;;;19.15;10.80;;;;;;;20.78;47.46;100346.50;5041191;28;20441;-40
2023/03/26 07:45:22;;;;;;;20.77;11.57;;;;;;;20.83;47.38;100342.25;5030101;28;20058;-40
2023/03/26 07:47:52;;;;;;;21.98;10.80;;;;;;;20.89;47.27;100349.56;5025717;28;20056;-40
2023/03/26 07:50:21;;;;;;;19.13;10.85;;;;;;;20.94;46.83;100339.09;5033403;28;20040;-38
2023/03/26 07:52:48;;;;;;;19.85;10.52;;;;;;;21.00;46.76;100342.91;5008757;28;20060;-39
2023/03/26 07:55:16;;;;;;;21.63;10.13;;;;;;;21.04;46.99;100338.81;5045877;28;20488;-41
2023/03/26 07:58:01;;;;;;;22.25;10.57;;;;;;;21.06;47.02;100334.06;5041730;28;20059;-39
2023/03/26 08:01:11;;;;;;;19.05;10.68;;;;;;;21.07;47.09;100332.22;5039822;28;20048;-38
2023/03/26 08:04:06;;;;;;;21.33;11.30;;;;;;;21.08;46.72;100333.88;5043467;28;20106;-40
2023/03/26 08:07:17;;;;;;;19.57;11.43;;;;;;;21.10;46.43;100332.66;5042166;28;20191;-40
2023/03/26 08:10:10;;;;;;;20.42;10.27;;;;;;;21.14;47.06;100322.34;5039101;28;20045;-41
2023/03/26 08:12:52;;;;;;;23.95;11.93;;;;;;;21.18;46.99;100324.47;4997228;28;20168;-40
2023/03/26 08:15:20;;;;;;;20.55;11.80;;;;;;;21.23;47.13;100325.78;5022196;28;20389;-41
2023/03/26 08:18:02;;;;;;;22.02;11.77;;;;;;;21.24;46.58;100327.47;5016781;28;20060;-41
2023/03/26 08:20:49;;;;;;;19.73;10.68;;;;;;;21.24;46.88;100330.16;5016068;28;20310;-40
2023/03/26 08:23:28;;;;;;;19.58;10.35;;;;;;;21.20;46.11;100324.31;5018797;28;20388;-41
2023/03/26 08:26:08;;;;;;;19.73;10.27;;;;;;;21.17;45.99;100332.75;5014202;28;20417;-40
2023/03/26 08:28:54;;;;;;;22.30;10.77;;;;;;;21.11;46.24;100328.97;5015584;28;20056;-40
2023/03/26 08:31:31;;;;;;;21.90;10.65;;;;;;;21.06;46.17;100325.97;5017455;28;20056;-41
2023/03/26 08:33:58;;;;;;;18.85;9.90;;;;;;;21.03;46.34;100328.22;4997008;28;21321;-40
2023/03/26 08:36:26;;;;;;;19.08;10.55;;;;;;;20.98;46.40;100323.38;5036660;28;20057;-42
2023/03/26 08:38:53;;;;;;;19.70;9.90;;;;;;;20.92;45.88;100330.34;5033753;28;20437;-41
2023/03/26 08:41:29;;;;;;;16.90;9.75;;;;;;;20.85;46.33;100331.28;5037023;28;20049;-40
2023/03/26 08:44:25;;;;;;;19.65;10.50;;;;;;;20.80;45.95;100333.69;5035813;28;20357;-41
2023/03/26 08:47:30;;;;;;;22.30;9.93;;;;;;;20.73;46.43;100333.56;5036467;28;20044;-40
2023/03/26 08:50:05;;;;;;;20.08;10.27;;;;;;;20.70;46.76;100340.19;5034381;28;20447;-41
2023/03/26 08:52:48;;;;;;;18.52;9.88;;;;;;;20.62;46.81;100334.88;5003072;28;20060;-42
2023/03/26 08:55:23;;;;;;;17.73;9.18;;;;;;;20.58;46.36;100347.03;5043377;28;20049;-40
2023/03/26 08:58:08;;;;;;;19.02;9.82;;;;;;;20.53;46.50;100341.34;5039029;28;20273;-40
2023/03/26 09:00:34;;;;;;;17.45;9.93;;;;;;;20.49;46.67;100339.19;5031251;28;20385;-40
2023/03/26 09:03:16;;;;;;;17.50;9.05;;;;;;;20.44;46.57;100347.78;5038409;28;20044;-40
2023/03/26 09:06:40;;;;;;;19.48;10.27;;;;;;;20.38;46.89;100337.72;5039124;28;20053;-38
2023/03/26 09:09:44;;;;;;;18.40;9.90;;;;;;;20.37;47.02;100342.28;5011313;28;20078;-40
2023/03/26 09:12:29;;;;;;;16.40;9.15;;;;;;;20.33;47.01;100345.53;4980782;28;20724;-40
2023/03/26 09:15:27;;;;;;;17.90;9.57;;;;;;;20.29;47.21;100357.66;4995977;28;20365;-39
2023/03/26 09:18:29;;;;;;;16.60;9.00;;;;;;;20.25;48.00;100346.44;5017554;28;20082;-42
2023/03/26 09:21:24;;;;;;;17.98;9.27;;;;;;;20.21;47.61;100342.41;5017397;28;20057;-40
2023/03/26 09:24:11;;;;;;;22.63;9.93;;;;;;;20.19;47.47;100348.00;5012914;28;20404;-40
2023/03/26 09:27:04;;;;;;;18.20;9.60;;;;;;;20.18;48.12;100345.47;5018898;28;20045;-40
2023/03/26 09:29:54;;;;;;;17.05;8.73;;;;;;;20.14;48.33;100355.78;5017081;28;20053;-40
2023/03/26 09:33:15;;;;;;;20.30;9.05;;;;;;;20.13;48.32;100339.78;4990603;28;20484;-41
2023/03/26 09:36:25;;;;;;;18.33;9.05;;;;;;;20.12;48.42;100352.41;5022285;28;20045;-40
2023/03/26 09:39:06;;;;;;;16.73;9.40;;;;;;;20.15;48.83;100344.00;5014493;28;20199;-40
2023/03/26 09:41:42;;;;;;;16.58;8.73;;;;;;;20.15;48.52;100349.38;5014977;28;20521;-43
2023/03/26 09:44:29;;;;;;;19.90;10.10;;;;;;;20.15;49.14;100346.69;5014440;28;20147;-39
2023/03/26 09:47:25;;;;;;;17.20;9.35;;;;;;;20.15;48.87;100346.69;5014056;28;20050;-40
2023/03/26 09:50:10;;;;;;;20.58;10.00;;;;;;;20.16;49.08;100359.09;5018010;28;20129;-40
2023/03/26 09:52:59;;;;;;;16.00;8.63;;;;;;;20.15;48.54;100362.81;4979130;28;20061;-39
2023/03/26 09:55:38;;;;;;;16.10;9.68;;;;;;;20.19;48.63;100360.63;5031685;28;20054;-39
2023/03/26 09:58:37;;;;;;;21.27;9.75;;;;;;;20.24;49.13;100365.47;5036534;28;20045;-39
2023/03/26 10:01:32;;;;;;;17.60;9.63;;;;;;;20.27;48.78;100367.78;5042225;28;20045;-39
2023/03/26 10:04:05;;;;;;;20.92;9.98;;;;;;;20.31;48.20;100366.41;5034944;28;20057;-39
2023/03/26 10:06:43;;;;;;;24.38;10.00;;;;;;;20.34;49.13;100364.22;5037509;28;20075;-40
2023/03/26 10:09:33;;;;;;;16.40;9.25;;;;;;;20.38;48.90;100370.91;5034613;28;20598;-40
2023/03/26 10:12:22;;;;;;;20.33;9.88;;;;;;;20.41;48.52;100377.75;5027405;28;20452;-41
2023/03/26 10:15:25;;;;;;;15.50;8.95;;;;;;;20.43;48.57;100375.75;5018971;28;20272;-39
2023/03/26 10:18:10;;;;;;;20.10;10.20;;;;;;;20.46;48.23;100372.66;5034797;28;20051;-40
2023/03/26 10:21:06;;;;;;;17.60;10.50;;;;;;;20.49;48.73;100380.41;5034545;28;20044;-40
2023/03/26 10:24:03;;;;;;;20.75;11.27;;;;;;;20.50;48.97;100384.78;5038338;28;20053;-41
2023/03/26 10:26:49;;;;;;;22.20;12.15;;;;;;;20.53;48.95;100391.66;5034277;28;20087;-39
2023/03/26 10:29:53;;;;;;;21.23;10.82;;;;;;;20.55;48.92;100389.63;5034897;28;20483;-39
2023/03/26 10:32:36;;;;;;;22.98;12.38;;;;;;;20.55;48.82;100386.94;5008989;28;20052;-39
2023/03/26 10:35:34;;;;;;;24.88;12.95;;;;;;;20.54;48.18;100388.78;5039820;28;20232;-39
2023/03/26 10:38:30;;;;;;;26.95;14.52;;;;;;;20.55;48.56;100393.16;5032076;28;20455;-39
2023/03/26 10:41:16;;;;;;;23.40;13.32;;;;;;;20.54;48.43;100393.31;5033503;28;20049;-39
2023/03/26 10:43:47;;;;;;;25.48;13.77;;;;;;;20.52;48.10;100396.22;5035689;28;20075;-39
2023/03/26 10:46:51;;;;;;;20.50;12.45;;;;;;;20.51;47.86;100404.47;5033420;28;20444;-40
2023/03/26 10:49:36;;;;;;;25.45;14.55;;;;;;;20.47;47.78;100409.34;5033597;28;20065;-39
2023/03/26 10:52:10;;;;;;;23.90;13.88;;;;;;;20.46;48.39;100410.34;5035966;28;20052;-39
2023/03/26 10:54:49;;;;;;;28.40;13.68;;;;;;;20.44;48.12;100412.41;5036592;28;20361;-39
2023/03/26 10:57:22;;;;;;;29.67;14.68;;;;;;;20.42;47.92;100415.28;5035293;28;20433;-39
2023/03/26 10:59:49;;;;;;;23.57;14.53;;;;;;;20.41;47.88;100415.44;5034875;28;20048;-39
2023/03/26 11:02:37;;;;;;;26.10;14.80;;;;;;;20.35;48.22;100422.41;5032962;28;20054;-39
2023/03/26 11:05:22;;;;;;;26.23;15.32;;;;;;;20.25;48.25;100426.31;5039389;28;20419;-38
2023/03/26 11:08:05;;;;;;;26.33;16.38;;;;;;;20.20;48.54;100425.00;5042217;28;20080;-39
2023/03/26 11:10:53;;;;;;;26.02;15.88;;;;;;;20.13;48.42;100424.03;5036843;28;20047;-39
2023/03/26 11:13:55;;;;;;;30.73;16.38;;;;;;;20.09;48.12;100425.41;5010147;28;20091;-39
2023/03/26 11:16:33;;;;;;;27.00;16.70;;;;;;;20.04;48.09;100430.50;4991304;28;20058;-39
2023/03/26 11:19:25;;;;;;;28.88;17.00;;;;;;;20.01;48.12;100433.53;5031157;28;20052;-39
2023/03/26 11:22:13;;;;;;;31.88;18.42;;;;;;;19.99;48.71;100440.94;5035892;28;20059;-39
2023/03/26 11:25:20;;;;;;;32.03;18.45;;;;;;;19.96;48.82;100444.00;5031627;28;20076;-38
2023/03/26 11:28:31;;;;;;;36.35;21.00;;;;;;;19.94;48.86;100446.88;5030268;28;20130;-39
2023/03/26 11:31:18;;;;;;;34.40;21.33;;;;;;;19.97;48.69;100448.34;5024705;28;20051;-39
2023/03/26 11:33:49;;;;;;;36.72;20.45;;;;;;;20.02;48.15;100455.88;5008385;28;20486;-40
2023/03/26 11:36:21;;;;;;;32.58;19.67;;;;;;;20.03;48.64;100453.03;5036615;28;20069;-39
2023/03/26 11:38:54;;;;;;;35.97;20.92;;;;;;;20.03;48.34;100458.41;5028509;28;20076;-40
2023/03/26 11:41:24;;;;;;;34.00;21.00;;;;;;;20.06;48.46;100465.28;5036448;28;20045;-39
2023/03/26 11:44:19;;;;;;;34.35;19.88;;;;;;;20.04;48.71;100465.47;5029870;28;20049;-39
2023/03/26 11:46:49;;;;;;;32.95;19.15;;;;;;;20.08;49.26;100460.56;5032933;28;20068;-39
2023/03/26 11:49:19;;;;;;;33.80;18.95;;;;;;;20.09;48.91;100470.31;5038846;28;20118;-39
2023/03/26 11:51:47;;;;;;;34.40;19.60;;;;;;;20.09;49.19;100473.00;5041238;28;20048;-41
2023/03/26 11:54:15;;;;;;;34.60;20.27;;;;;;;20.10;48.83;100469.28;5017009;28;20060;-41